createdAt,value
2023-03-05T00:01:22.861Z,0.70
2023-03-05T00:03:50.489Z,0.50
2023-03-05T00:06:17.404Z,0.88
2023-03-05T00:08:44.793Z,0.55
2023-03-05T00:11:13.977Z,0.70
2023-03-05T00:13:41.378Z,0.77
2023-03-05T00:16:12.854Z,0.60
2023-03-05T00:18:40.879Z,0.40
2023-03-05T00:21:19.831Z,0.70
2023-03-05T00:23:47.261Z,0.70
2023-03-05T00:26:15.719Z,0.45
2023-03-05T00:28:42.934Z,0.80
2023-03-05T00:31:09.966Z,0.68
2023-03-05T00:33:36.875Z,0.57
2023-03-05T00:36:07.348Z,0.60
2023-03-05T00:38:34.363Z,0.52
2023-03-05T00:41:02.181Z,0.80
2023-03-05T00:43:30.816Z,0.30
2023-03-05T00:45:57.915Z,0.70
2023-03-05T00:48:24.859Z,0.65
2023-03-05T00:50:52.458Z,0.60
2023-03-05T00:53:19.951Z,0.68
2023-03-05T00:55:47.053Z,0.60
2023-03-05T00:58:14.318Z,0.60
2023-03-05T01:00:42.953Z,0.70
2023-03-05T01:03:10.111Z,0.60
2023-03-05T01:05:37.100Z,0.90
2023-03-05T01:08:04.612Z,0.82
2023-03-05T01:10:31.870Z,0.55
2023-03-05T01:12:58.997Z,0.47
2023-03-05T01:15:26.018Z,0.77
2023-03-05T01:17:54.767Z,0.50
2023-03-05T01:20:22.991Z,0.70
2023-03-05T01:22:50.151Z,0.73
2023-03-05T01:25:18.048Z,0.63
2023-03-05T01:27:45.882Z,0.55
2023-03-05T01:30:15.206Z,0.50
2023-03-05T01:32:43.143Z,0.40
2023-03-05T01:35:18.603Z,0.50
2023-03-05T01:37:46.054Z,0.50
2023-03-05T01:40:18.411Z,0.40
2023-03-05T01:45:17.668Z,0.20
2023-03-05T01:47:45.674Z,0.40
2023-03-05T01:50:20.859Z,0.40
2023-03-05T01:52:54.237Z,0.40
2023-03-05T01:55:24.996Z,0.40
2023-03-05T01:57:57.795Z,0.60
2023-03-05T02:00:30.608Z,0.55
2023-03-05T02:03:07.501Z,0.30
2023-03-05T02:05:38.949Z,0.45
2023-03-05T02:08:09.239Z,0.50
2023-03-05T02:10:39.933Z,0.40
2023-03-05T02:13:11.916Z,0.60
2023-03-05T02:15:40.552Z,0.43
2023-03-05T02:18:08.885Z,0.63
2023-03-05T02:20:48.195Z,0.60
2023-03-05T02:23:21.101Z,0.77
2023-03-05T02:25:48.354Z,0.65
2023-03-05T02:28:22.391Z,0.68
2023-03-05T02:30:49.651Z,0.60
2023-03-05T02:33:19.600Z,0.60
2023-03-05T02:35:47.572Z,0.70
2023-03-05T02:38:19.517Z,0.65
2023-03-05T02:40:46.442Z,0.88
2023-03-05T02:43:15.220Z,0.68
2023-03-05T02:45:42.299Z,0.90
2023-03-05T02:51:25.674Z,0.68
2023-03-05T02:53:54.595Z,0.75
2023-03-05T02:56:24.865Z,0.68
2023-03-05T02:58:54.912Z,0.80
2023-03-05T03:01:22.709Z,0.90
2023-03-05T03:03:49.886Z,0.50
2023-03-05T03:06:16.725Z,0.68
2023-03-05T03:08:43.969Z,0.50
2023-03-05T03:11:13.072Z,0.50
2023-03-05T03:13:40.726Z,0.60
2023-03-05T03:16:13.892Z,0.80
2023-03-05T03:18:41.427Z,0.73
2023-03-05T03:21:08.845Z,0.70
2023-03-05T03:23:35.778Z,0.70
2023-03-05T03:26:02.785Z,0.32
2023-03-05T03:28:31.369Z,0.38
2023-03-05T03:30:58.181Z,0.68
2023-03-05T03:33:25.099Z,0.50
2023-03-05T03:35:52.168Z,0.70
2023-03-05T03:38:19.221Z,0.30
2023-03-05T03:43:18.216Z,0.30
2023-03-05T03:45:46.581Z,0.60
2023-03-05T03:48:14.611Z,0.50
2023-03-05T03:50:42.716Z,0.40
2023-03-05T03:53:10.952Z,0.20
2023-03-05T03:55:37.853Z,0.50
2023-03-05T03:58:04.711Z,0.22
2023-03-05T04:00:31.770Z,0.32
2023-03-05T04:03:00.207Z,0.50
2023-03-05T04:05:27.344Z,0.35
2023-03-05T04:07:54.426Z,0.55
2023-03-05T04:10:21.407Z,0.40
2023-03-05T04:12:48.211Z,0.40
2023-03-05T04:15:15.307Z,0.50
2023-03-05T04:17:42.392Z,0.50
2023-03-05T04:20:12.247Z,0.60
2023-03-05T04:22:39.734Z,0.47
2023-03-05T04:25:07.616Z,0.80
2023-03-05T04:27:35.846Z,0.57
2023-03-05T04:30:07.997Z,0.60
2023-03-05T04:32:35.271Z,0.75
2023-03-05T04:35:02.703Z,0.57
2023-03-05T04:37:30.848Z,0.63
2023-03-05T04:39:57.933Z,0.68
2023-03-05T04:42:24.960Z,0.60
2023-03-05T04:44:52.283Z,0.70
2023-03-05T04:47:19.704Z,0.50
2023-03-05T04:49:53.439Z,0.68
2023-03-05T04:52:20.748Z,0.63
2023-03-05T04:54:49.122Z,0.60
2023-03-05T04:57:16.512Z,0.40
2023-03-05T04:59:44.564Z,0.70
2023-03-05T05:02:11.989Z,0.55
2023-03-05T05:04:38.892Z,0.80
2023-03-05T05:07:12.995Z,0.60
2023-03-05T05:09:40.078Z,0.52
2023-03-05T05:12:09.720Z,0.43
2023-03-05T05:14:36.993Z,0.60
2023-03-05T05:17:04.100Z,0.40
2023-03-05T05:19:31.220Z,0.50
2023-03-05T05:21:58.276Z,0.47
2023-03-05T05:24:25.294Z,0.75
2023-03-05T05:26:54.535Z,0.50
2023-03-05T05:29:29.069Z,0.60
2023-03-05T05:31:56.318Z,0.60
2023-03-05T05:34:23.194Z,0.80
2023-03-05T05:36:50.314Z,0.47
2023-03-05T05:39:19.018Z,0.50
2023-03-05T05:41:51.507Z,0.50
2023-03-05T05:44:19.248Z,0.50
2023-03-05T05:46:47.738Z,0.70
2023-03-05T05:49:14.628Z,0.70
2023-03-05T05:51:41.754Z,0.68
2023-03-05T05:54:11.603Z,0.80
2023-03-05T05:56:38.988Z,0.60
2023-03-05T05:59:06.150Z,0.63
2023-03-05T06:01:34.897Z,0.52
2023-03-05T06:04:06.603Z,0.40
2023-03-05T06:06:35.958Z,0.60
2023-03-05T06:09:04.079Z,0.40
2023-03-05T06:11:31.029Z,0.60
2023-03-05T06:13:58.191Z,0.60
2023-03-05T06:16:25.849Z,0.73
2023-03-05T06:18:53.565Z,0.70
2023-03-05T06:21:24.203Z,0.70
2023-03-05T06:23:52.233Z,0.57
2023-03-05T06:26:22.307Z,0.57
2023-03-05T06:28:49.631Z,0.45
2023-03-05T06:31:19.894Z,0.45
2023-03-05T06:33:47.236Z,0.50
2023-03-05T06:36:18.840Z,0.40
2023-03-05T06:38:48.982Z,0.65
2023-03-05T06:41:20.202Z,0.93
2023-03-05T06:43:49.181Z,0.40
2023-03-05T06:46:19.215Z,0.50
2023-03-05T06:48:47.290Z,0.65
2023-03-05T06:51:15.739Z,0.40
2023-03-05T06:53:43.710Z,0.35
2023-03-05T06:56:22.973Z,0.40
2023-03-05T06:59:00.157Z,0.40
2023-03-05T07:01:37.243Z,0.50
2023-03-05T07:04:16.063Z,0.40
2023-03-05T07:06:53.138Z,0.13
2023-03-05T07:09:30.227Z,0.30
2023-03-05T07:12:00.007Z,0.55
2023-03-05T07:14:37.631Z,0.38
2023-03-05T07:17:06.243Z,0.52
2023-03-05T07:19:43.354Z,0.50
2023-03-05T07:22:20.400Z,0.35
2023-03-05T07:24:57.254Z,0.57
2023-03-05T07:27:37.072Z,0.40
2023-03-05T07:30:15.409Z,0.47
2023-03-05T07:32:52.358Z,0.43
2023-03-05T07:35:29.461Z,0.60
2023-03-05T07:38:06.349Z,0.40
2023-03-05T07:40:43.507Z,0.68
2023-03-05T07:43:21.925Z,0.50
2023-03-05T07:46:00.235Z,0.40
2023-03-05T07:51:40.962Z,0.45
2023-03-05T07:54:18.114Z,0.40
2023-03-05T07:56:54.884Z,0.50
2023-03-05T07:59:25.805Z,0.40
2023-03-05T08:02:02.684Z,0.20
2023-03-05T08:04:39.891Z,0.65
2023-03-05T08:07:17.130Z,0.40
2023-03-05T08:09:53.193Z,0.80
2023-03-05T08:12:30.384Z,0.60
2023-03-05T08:15:10.126Z,0.50
2023-03-05T08:17:47.041Z,0.73
2023-03-05T08:20:24.123Z,0.50
2023-03-05T08:22:51.696Z,0.40
2023-03-05T08:25:19.096Z,0.40
2023-03-05T08:27:48.126Z,0.60
2023-03-05T08:30:25.431Z,0.70
2023-03-05T08:32:53.056Z,0.60
2023-03-05T08:35:20.634Z,0.43
2023-03-05T08:37:47.900Z,0.50
2023-03-05T08:40:15.129Z,0.43
2023-03-05T08:42:42.232Z,0.50
2023-03-05T08:45:10.846Z,0.68
2023-03-05T08:47:39.571Z,0.50
2023-03-05T08:50:07.628Z,0.47
2023-03-05T08:52:35.092Z,0.30
2023-03-05T08:55:02.530Z,0.57
2023-03-05T08:57:29.562Z,0.60
2023-03-05T08:59:56.664Z,0.70
2023-03-05T09:02:23.528Z,0.50
2023-03-05T09:04:51.682Z,0.57
2023-03-05T09:07:18.839Z,0.43
2023-03-05T09:09:45.663Z,0.35
2023-03-05T09:12:13.167Z,0.65
2023-03-05T09:14:40.505Z,0.60
2023-03-05T09:17:07.859Z,0.45
2023-03-05T09:19:34.748Z,0.43
2023-03-05T09:22:03.405Z,0.60
2023-03-05T09:24:30.920Z,0.60
2023-03-05T09:26:59.287Z,0.60
2023-03-05T09:29:26.308Z,0.93
2023-03-05T09:31:53.832Z,0.80
2023-03-05T09:34:20.738Z,0.80
2023-03-05T09:36:47.782Z,1.63
2023-03-05T09:39:16.527Z,2.45
2023-03-05T09:42:22.093Z,2.17
2023-03-05T09:45:12.736Z,2.50
2023-03-05T09:47:56.015Z,4.90
2023-03-05T09:50:39.852Z,4.97
2023-03-05T09:53:21.378Z,3.20
2023-03-05T09:55:53.494Z,2.10
2023-03-05T09:58:35.247Z,0.77
2023-03-05T10:01:07.656Z,0.73
2023-03-05T10:03:51.216Z,0.80
2023-03-05T10:06:23.690Z,3.00
2023-03-05T10:09:02.113Z,3.33
2023-03-05T10:11:42.980Z,1.50
2023-03-05T10:14:15.286Z,1.48
2023-03-05T10:17:12.412Z,0.80
2023-03-05T10:20:18.487Z,0.45
2023-03-05T10:23:05.574Z,0.60
2023-03-05T10:25:52.992Z,0.68
2023-03-05T10:28:33.318Z,0.90
2023-03-05T10:31:30.355Z,0.70
2023-03-05T10:34:19.783Z,0.93
2023-03-05T10:37:04.712Z,0.50
2023-03-05T10:40:03.353Z,0.70
2023-03-05T10:42:41.370Z,0.55
2023-03-05T10:45:18.352Z,0.75
2023-03-05T10:47:53.763Z,3.85
2023-03-05T10:50:26.158Z,2.75
2023-03-05T10:53:12.430Z,1.10
2023-03-05T10:55:39.873Z,0.77
2023-03-05T10:58:13.399Z,0.57
2023-03-05T11:00:59.361Z,0.45
2023-03-05T11:03:26.428Z,0.77
2023-03-05T11:06:01.693Z,0.38
2023-03-05T11:08:33.394Z,0.32
2023-03-05T11:11:10.929Z,0.40
2023-03-05T11:13:50.282Z,0.50
2023-03-05T11:16:22.649Z,0.40
2023-03-05T11:18:50.426Z,0.38
2023-03-05T11:21:24.708Z,0.82
2023-03-05T11:24:09.945Z,0.73
2023-03-05T11:26:36.932Z,3.22
2023-03-05T11:29:04.410Z,6.63
2023-03-05T11:31:34.035Z,6.07
2023-03-05T11:34:04.442Z,1.85
2023-03-05T11:36:34.225Z,1.48
2023-03-05T11:39:14.765Z,0.70
2023-03-05T11:41:48.077Z,0.95
2023-03-05T11:44:20.918Z,0.60
2023-03-05T11:46:54.405Z,0.95
2023-03-05T11:49:27.895Z,0.50
2023-03-05T11:52:04.091Z,0.40
2023-03-05T11:54:40.387Z,0.40
2023-03-05T11:57:12.937Z,0.60
2023-03-05T11:59:40.007Z,0.57
2023-03-05T12:02:20.211Z,0.47
2023-03-05T12:04:49.659Z,0.50
2023-03-05T12:07:26.874Z,0.60
2023-03-05T12:09:55.107Z,0.45
2023-03-05T12:12:38.791Z,0.38
2023-03-05T12:15:37.397Z,0.40
2023-03-05T12:18:21.543Z,0.22
2023-03-05T12:21:05.557Z,0.30
2023-03-05T12:23:48.648Z,0.20
2023-03-05T12:26:16.378Z,0.30
2023-03-05T12:28:56.641Z,0.25
2023-03-05T12:31:36.492Z,0.28
2023-03-05T12:34:58.108Z,0.17
2023-03-05T12:38:24.333Z,0.20
2023-03-05T12:40:52.220Z,0.20
2023-03-05T12:43:32.239Z,0.20
2023-03-05T12:46:27.002Z,0.20
2023-03-05T12:48:54.356Z,0.40
2023-03-05T12:51:36.489Z,0.40
2023-03-05T12:54:33.276Z,0.30
2023-03-05T12:57:02.096Z,0.20
2023-03-05T12:59:41.849Z,0.38
2023-03-05T13:02:26.320Z,0.28
2023-03-05T13:05:01.005Z,0.20
2023-03-05T13:07:29.495Z,0.22
2023-03-05T13:09:58.736Z,0.30
2023-03-05T13:12:29.921Z,0.30
2023-03-05T13:15:04.641Z,0.37
2023-03-05T13:17:36.948Z,0.40
2023-03-05T13:20:35.006Z,0.40
2023-03-05T13:23:23.064Z,0.40
2023-03-05T13:26:01.000Z,0.60
2023-03-05T13:28:29.810Z,0.40
2023-03-05T13:31:00.459Z,0.32
2023-03-05T13:33:30.862Z,0.57
2023-03-05T13:35:58.935Z,0.45
2023-03-05T13:38:35.467Z,0.40
2023-03-05T13:41:22.950Z,0.43
2023-03-05T13:43:53.353Z,0.40
2023-03-05T13:46:31.428Z,0.40
2023-03-05T13:49:18.062Z,0.40
2023-03-05T13:51:48.378Z,0.50
2023-03-05T13:54:18.945Z,0.40
2023-03-05T13:56:54.797Z,0.50
2023-03-05T13:59:27.210Z,0.47
2023-03-05T14:01:56.008Z,0.55
2023-03-05T14:04:26.694Z,0.35
2023-03-05T14:06:58.971Z,0.40
2023-03-05T14:12:02.217Z,0.52
2023-03-05T14:14:34.223Z,0.40
2023-03-05T14:17:23.702Z,0.30
2023-03-05T14:19:50.946Z,0.43
2023-03-05T14:22:32.861Z,0.63
2023-03-05T14:25:01.430Z,0.77
2023-03-05T14:27:35.237Z,0.90
2023-03-05T14:30:03.145Z,1.27
2023-03-05T14:32:34.808Z,1.33
2023-03-05T14:35:05.949Z,2.47
2023-03-05T14:37:36.654Z,2.17
2023-03-05T14:40:08.046Z,1.50
2023-03-05T14:42:38.795Z,1.33
2023-03-05T14:45:16.478Z,1.90
2023-03-05T14:47:44.382Z,1.00
2023-03-05T14:50:16.285Z,1.30
2023-03-05T14:52:45.375Z,1.60
2023-03-05T14:55:18.628Z,1.50
2023-03-05T14:57:47.469Z,2.55
2023-03-05T15:00:18.442Z,1.27
2023-03-05T15:02:45.815Z,1.50
2023-03-05T15:05:12.908Z,1.52
2023-03-05T15:07:40.284Z,1.20
2023-03-05T15:10:08.894Z,1.00
2023-03-05T15:12:37.579Z,0.80
2023-03-05T15:15:06.021Z,0.75
2023-03-05T15:17:36.537Z,0.90
2023-03-05T15:20:05.885Z,0.80
2023-03-05T15:22:32.892Z,1.52
2023-03-05T15:25:00.358Z,2.42
2023-03-05T15:27:27.386Z,1.70
2023-03-05T15:29:55.911Z,1.15
2023-03-05T15:32:23.255Z,0.80
2023-03-05T15:34:50.321Z,0.50
2023-03-05T15:37:17.663Z,0.45
2023-03-05T15:39:44.483Z,0.50
2023-03-05T15:42:12.112Z,0.52
2023-03-05T15:44:38.975Z,0.40
2023-03-05T15:47:07.628Z,0.45
2023-03-05T15:49:35.058Z,0.45
2023-03-05T15:52:02.191Z,0.65
2023-03-05T15:54:29.258Z,0.40
2023-03-05T15:56:56.190Z,0.45
2023-03-05T15:59:23.302Z,0.50
2023-03-05T16:01:51.837Z,0.43
2023-03-05T16:04:20.275Z,0.47
2023-03-05T16:06:50.157Z,0.25
2023-03-05T16:09:20.484Z,0.35
2023-03-05T16:11:49.043Z,0.50
2023-03-05T16:14:21.801Z,0.30
2023-03-05T16:16:50.662Z,0.30
2023-03-05T16:19:20.807Z,0.30
2023-03-05T16:21:48.733Z,0.40
2023-03-05T16:24:16.009Z,0.20
2023-03-05T16:26:43.059Z,0.22
2023-03-05T16:29:11.633Z,0.30
2023-03-05T16:31:40.002Z,0.30
2023-03-05T16:34:06.948Z,0.20
2023-03-05T16:36:35.539Z,0.40
2023-03-05T16:39:05.111Z,0.30
2023-03-05T16:41:33.135Z,0.30
2023-03-05T16:44:00.180Z,0.47
2023-03-05T16:46:30.066Z,0.43
2023-03-05T16:48:57.982Z,0.25
2023-03-05T16:51:26.855Z,0.20
2023-03-05T16:53:55.863Z,0.25
2023-03-05T16:56:23.446Z,0.50
2023-03-05T16:58:54.215Z,0.30
2023-03-05T17:01:22.885Z,0.30
2023-03-05T17:03:50.339Z,0.35
2023-03-05T17:06:21.462Z,0.60
2023-03-05T17:08:49.346Z,0.70
2023-03-05T17:11:19.206Z,0.68
2023-03-05T17:13:48.771Z,0.68
2023-03-05T17:16:18.552Z,0.60
2023-03-05T17:18:45.674Z,0.50
2023-03-05T17:21:13.218Z,0.50
2023-03-05T17:23:41.330Z,0.47
2023-03-05T17:26:11.508Z,0.40
2023-03-05T17:28:41.250Z,0.40
2023-03-05T17:31:08.684Z,0.25
2023-03-05T17:33:36.832Z,0.30
2023-03-05T17:36:05.606Z,0.38
2023-03-05T17:38:32.897Z,0.30
2023-03-05T17:40:59.687Z,0.47
2023-03-05T17:43:27.033Z,0.50
2023-03-05T17:45:55.841Z,0.30
2023-03-05T17:48:22.715Z,0.22
2023-03-05T17:50:49.842Z,0.50
2023-03-05T17:53:16.984Z,0.40
2023-03-05T17:55:43.913Z,0.40
2023-03-05T17:58:11.041Z,0.35
2023-03-05T18:00:37.954Z,0.40
2023-03-05T18:03:06.461Z,0.40
2023-03-05T18:05:33.368Z,0.40
2023-03-05T18:08:00.988Z,0.50
2023-03-05T18:10:29.309Z,0.65
2023-03-05T18:12:56.828Z,0.45
2023-03-05T18:15:26.453Z,0.60
2023-03-05T18:17:53.735Z,0.80
2023-03-05T18:20:29.468Z,1.00
2023-03-05T18:22:57.437Z,0.80
2023-03-05T18:25:25.532Z,0.52
2023-03-05T18:27:52.946Z,0.60
2023-03-05T18:30:20.153Z,0.52
2023-03-05T18:32:47.239Z,0.50
2023-03-05T18:35:14.793Z,0.70
2023-03-05T18:37:43.252Z,0.60
2023-03-05T18:40:18.731Z,0.40
2023-03-05T18:42:46.643Z,0.45
2023-03-05T18:45:16.184Z,0.35
2023-03-05T18:47:44.123Z,0.40
2023-03-05T18:50:14.393Z,0.50
2023-03-05T18:52:42.886Z,0.57
2023-03-05T18:55:15.403Z,0.55
2023-03-05T18:57:42.576Z,0.55
2023-03-05T19:00:14.131Z,0.82
2023-03-05T19:02:41.428Z,0.73
2023-03-05T19:05:09.604Z,0.70
2023-03-05T19:07:37.351Z,0.68
2023-03-05T19:10:08.940Z,0.75
2023-03-05T19:12:54.147Z,0.85
2023-03-05T19:15:26.683Z,1.00
2023-03-05T19:17:53.573Z,0.98
2023-03-05T19:20:20.809Z,1.00
2023-03-05T19:22:47.895Z,1.30
2023-03-05T19:25:16.990Z,1.02
2023-03-05T19:27:44.167Z,1.05
2023-03-05T19:30:12.226Z,1.00
2023-03-05T19:32:39.711Z,0.77
2023-03-05T19:35:07.881Z,0.95
2023-03-05T19:37:34.956Z,1.10
2023-03-05T19:40:01.996Z,0.85
2023-03-05T19:42:30.183Z,0.80
2023-03-05T19:44:59.029Z,0.73
2023-03-05T19:47:27.235Z,0.60
2023-03-05T19:49:54.186Z,0.70
2023-03-05T19:52:21.103Z,0.85
2023-03-05T19:54:48.139Z,0.70
2023-03-05T19:57:15.025Z,0.75
2023-03-05T19:59:43.300Z,0.63
2023-03-05T20:02:12.281Z,0.80
2023-03-05T20:04:39.198Z,1.10
2023-03-05T20:07:07.088Z,0.95
2023-03-05T20:09:34.142Z,1.60
2023-03-05T20:12:01.029Z,2.50
2023-03-05T20:14:27.827Z,1.83
2023-03-05T20:16:56.029Z,1.20
2023-03-05T20:19:23.016Z,1.30
2023-03-05T20:21:50.032Z,1.77
2023-03-05T20:24:19.195Z,2.08
2023-03-05T20:26:47.978Z,1.42
2023-03-05T20:29:18.188Z,1.40
2023-03-05T20:31:47.204Z,0.88
2023-03-05T20:34:19.399Z,0.73
2023-03-05T20:36:46.497Z,0.40
2023-03-05T20:39:13.787Z,0.70
2023-03-05T20:41:42.508Z,0.57
2023-03-05T20:44:09.477Z,0.65
2023-03-05T20:46:47.279Z,0.80
2023-03-05T20:49:21.264Z,0.80
2023-03-05T20:51:49.787Z,0.70
2023-03-05T20:54:17.206Z,0.70
2023-03-05T20:56:44.333Z,0.90
2023-03-05T20:59:11.233Z,0.90
2023-03-05T21:01:40.276Z,1.02
2023-03-05T21:04:08.236Z,0.98
2023-03-05T21:06:36.928Z,1.10
2023-03-05T21:09:04.545Z,2.38
2023-03-05T21:11:32.067Z,1.55
2023-03-05T21:13:58.923Z,0.88
2023-03-05T21:16:28.068Z,1.02
2023-03-05T21:18:55.854Z,0.82
2023-03-05T21:21:23.831Z,0.80
2023-03-05T21:23:52.306Z,0.52
2023-03-05T21:26:19.885Z,0.60
2023-03-05T21:28:46.767Z,0.50
2023-03-05T21:31:17.828Z,0.80
2023-03-05T21:33:45.158Z,0.73
2023-03-05T21:36:12.096Z,0.88
2023-03-05T21:38:39.161Z,0.65
2023-03-05T21:41:07.655Z,0.90
2023-03-05T21:43:34.598Z,0.82
2023-03-05T21:46:03.291Z,0.95
2023-03-05T21:52:05.079Z,0.85
2023-03-05T21:54:31.929Z,0.90
2023-03-05T21:57:00.133Z,1.02
2023-03-05T21:59:27.145Z,1.02
2023-03-05T22:01:54.009Z,1.00
2023-03-05T22:04:21.098Z,0.90
2023-03-05T22:06:48.252Z,1.00
2023-03-05T22:09:15.701Z,1.02
2023-03-05T22:11:43.998Z,0.95
2023-03-05T22:14:12.220Z,0.98
2023-03-05T22:16:39.541Z,0.98
2023-03-05T22:19:08.731Z,1.05
2023-03-05T22:21:35.829Z,0.90
2023-03-05T22:24:03.037Z,1.10
2023-03-05T22:26:36.489Z,1.13
2023-03-05T22:29:04.871Z,1.00
2023-03-05T22:31:33.297Z,1.10
2023-03-05T22:34:00.746Z,1.08
2023-03-05T22:36:27.918Z,1.25
2023-03-05T22:38:54.987Z,1.40
2023-03-05T22:41:22.590Z,1.50
2023-03-05T22:43:50.841Z,1.70
2023-03-05T22:46:21.733Z,1.50
2023-03-05T22:48:51.523Z,1.25
2023-03-05T22:51:20.083Z,1.52
2023-03-05T22:53:47.610Z,1.25
2023-03-05T22:56:19.832Z,1.55
2023-03-05T22:58:47.860Z,1.25
2023-03-05T23:01:19.027Z,1.60
2023-03-05T23:04:45.159Z,1.75
2023-03-05T23:07:12.229Z,1.98
2023-03-05T23:09:39.133Z,1.55
2023-03-05T23:12:07.246Z,1.48
2023-03-05T23:14:34.246Z,1.90
2023-03-05T23:17:01.307Z,1.60
2023-03-05T23:19:29.696Z,1.63
2023-03-05T23:21:56.533Z,1.95
2023-03-05T23:24:23.624Z,1.73
2023-03-05T23:26:50.850Z,1.60
2023-03-05T23:29:46.411Z,1.42
2023-03-05T23:32:21.497Z,2.00
2023-03-05T23:34:49.827Z,2.20
2023-03-05T23:37:16.866Z,2.08
2023-03-05T23:39:43.984Z,2.13
2023-03-05T23:42:10.950Z,2.35
2023-03-05T23:44:38.184Z,2.58
2023-03-05T23:47:05.809Z,2.40
2023-03-05T23:49:32.956Z,2.65
2023-03-05T23:52:01.140Z,2.80
2023-03-05T23:54:29.708Z,2.55
2023-03-05T23:56:56.596Z,2.55
2023-03-05T23:59:23.691Z,2.38
